Time;durP1;ratioP1;P1;durP2;ratioP2;P2;SDS_P1;SDS_P2;PMS_P1;PMS_P2;Temp;Humidity;BMP_temperature;BMP_pressure;BME280_temperature;BME280_humidity;BME280_pressure;Samples;Min_cycle;Max_cycle;Signal;HPM_P1;HPM_P2
2022/04/16 00:00:15;;;;;;;3.72;3.42;;;17.40;78.30;;;;;;4996214;28;96624;-71
2022/04/16 00:02:45;;;;;;;4.10;3.60;;;17.40;78.20;;;;;;4984781;28;96111;-70
2022/04/16 00:05:15;;;;;;;;;;;17.50;78.30;;;;;;5004068;28;95769;-70
2022/04/16 00:10:44;;;;;;;3.67;3.38;;;17.40;78.80;;;;;;4973105;28;97033;-70
2022/04/16 00:13:20;;;;;;;3.47;3.17;;;17.50;78.20;;;;;;4985985;28;95895;-70
2022/04/16 00:15:55;;;;;;;3.83;3.17;;;17.50;78.20;;;;;;4979782;28;97703;-71
2022/04/16 00:18:27;;;;;;;3.83;3.53;;;17.50;78.20;;;;;;4986326;28;96077;-70
2022/04/16 00:21:02;;;;;;;6.45;4.35;;;17.50;78.20;;;;;;4970355;28;96217;-70
2022/04/16 00:23:32;;;;;;;3.42;3.10;;;17.50;78.10;;;;;;4986022;28;97265;-70
2022/04/16 00:26:02;;;;;;;3.40;3.03;;;17.50;78.70;;;;;;4986223;28;95781;-71
2022/04/16 00:28:33;;;;;;;4.30;3.72;;;17.50;78.10;;;;;;4987851;28;95682;-70
2022/04/16 00:31:03;;;;;;;4.35;3.10;;;17.50;78.00;;;;;;4979830;28;96057;-70
2022/04/16 00:33:35;;;;;;;3.20;2.90;;;17.50;78.10;;;;;;4984121;28;96904;-70
2022/04/16 00:36:06;;;;;;;4.65;3.47;;;17.60;78.10;;;;;;4961718;28;95922;-70
2022/04/16 00:38:41;;;;;;;3.47;3.15;;;17.60;78.10;;;;;;4982025;28;95692;-71
2022/04/16 00:41:13;;;;;;;3.50;3.20;;;17.60;78.00;;;;;;4987688;28;95854;-70
2022/04/16 00:43:44;;;;;;;3.38;3.08;;;17.60;78.00;;;;;;4985350;28;97259;-71
2022/04/16 00:46:14;;;;;;;3.75;3.33;;;17.60;78.00;;;;;;4977819;28;95915;-70
2022/04/16 00:48:45;;;;;;;;;;;17.70;78.10;;;;;;4963027;28;95725;-70
2022/04/16 00:51:17;;;;;;;4.03;3.07;;;17.70;78.00;;;;;;4988115;28;96632;-71
2022/04/16 00:53:51;;;;;;;4.07;3.10;;;17.70;78.00;;;;;;4987735;28;95987;-71
2022/04/16 00:56:22;;;;;;;4.17;3.23;;;17.70;78.00;;;;;;4964119;28;96484;-71
2022/04/16 00:58:54;;;;;;;4.95;3.15;;;17.70;77.90;;;;;;4988209;28;96433;-70
2022/04/16 01:01:24;;;;;;;3.80;3.28;;;17.80;78.00;;;;;;4977945;28;95933;-70
2022/04/16 01:03:54;;;;;;;3.40;3.10;;;17.70;77.90;;;;;;4987148;28;96126;-70
2022/04/16 01:06:34;;;;;;;3.45;3.10;;;17.80;78.60;;;;;;4986443;28;95726;-71
2022/04/16 01:09:06;;;;;;;4.30;3.28;;;17.90;78.10;;;;;;4980278;28;95832;-70
2022/04/16 01:11:39;;;;;;;4.47;3.30;;;17.80;77.90;;;;;;4978656;28;96467;-70
2022/04/16 01:14:11;;;;;;;2.97;2.70;;;17.90;77.90;;;;;;5001146;28;96153;-71
2022/04/16 01:16:42;;;;;;;3.20;2.80;;;17.90;77.90;;;;;;4977324;28;95314;-70
2022/04/16 01:19:12;;;;;;;3.50;3.20;;;18.00;77.90;;;;;;4985146;28;95608;-71
2022/04/16 01:21:43;;;;;;;2.90;2.60;;;18.00;77.90;;;;;;4980045;28;95923;-71
2022/04/16 01:24:15;;;;;;;3.95;2.97;;;18.00;77.90;;;;;;4982955;28;97269;-70
2022/04/16 01:26:46;;;;;;;3.65;3.28;;;18.00;77.90;;;;;;4985707;28;95232;-70
2022/04/16 01:29:17;;;;;;;3.85;3.17;;;18.10;77.80;;;;;;4986319;28;96867;-71
2022/04/16 01:31:47;;;;;;;3.55;3.25;;;18.10;77.80;;;;;;4978941;28;95960;-71
2022/04/16 01:34:20;;;;;;;3.30;3.00;;;18.20;77.80;;;;;;4987039;28;96562;-71
2022/04/16 01:36:50;;;;;;;3.50;2.97;;;18.20;77.70;;;;;;4988183;28;95429;-71
2022/04/16 01:39:21;;;;;;;4.22;2.72;;;18.20;77.70;;;;;;4988767;28;95653;-71
2022/04/16 01:41:53;;;;;;;2.92;2.72;;;18.20;77.60;;;;;;4993684;28;95913;-72
2022/04/16 01:44:26;;;;;;;3.88;3.08;;;18.30;77.60;;;;;;4996462;28;95439;-72
2022/04/16 01:46:58;;;;;;;3.33;2.85;;;18.30;77.60;;;;;;4969180;28;95834;-71
2022/04/16 01:49:32;;;;;;;3.25;2.95;;;18.30;77.40;;;;;;5002271;28;95215;-71
2022/04/16 01:52:03;;;;;;;3.40;3.05;;;18.40;77.40;;;;;;5003681;28;96011;-70
2022/04/16 01:54:35;;;;;;;3.35;2.90;;;18.50;77.30;;;;;;5005748;28;95618;-71
2022/04/16 01:57:06;;;;;;;3.33;2.95;;;18.50;77.30;;;;;;4985000;28;95361;-71
2022/04/16 01:59:37;;;;;;;;;;;18.60;77.90;;;;;;4964661;28;95642;-71
2022/04/16 02:02:07;;;;;;;3.15;2.85;;;18.60;77.20;;;;;;4982631;28;95954;-70
2022/04/16 02:04:38;;;;;;;3.35;2.90;;;18.70;77.10;;;;;;4987848;28;97552;-70
2022/04/16 02:07:09;;;;;;;3.13;2.83;;;18.70;77.10;;;;;;4971179;28;95922;-70
2022/04/16 02:09:42;;;;;;;4.00;2.70;;;18.70;77.00;;;;;;4981306;28;96272;-70
2022/04/16 02:12:14;;;;;;;3.40;2.70;;;18.80;76.80;;;;;;4984633;28;95887;-71
2022/04/16 02:14:45;;;;;;;3.42;3.13;;;18.80;76.80;;;;;;5001234;28;97481;-70
2022/04/16 02:17:16;;;;;;;2.78;2.55;;;18.90;76.80;;;;;;4962120;28;95915;-70
2022/04/16 02:19:48;;;;;;;3.33;2.83;;;18.90;76.70;;;;;;4987149;28;95650;-70
2022/04/16 02:22:18;;;;;;;4.07;3.00;;;19.00;76.60;;;;;;4994077;28;95871;-70
2022/04/16 02:24:48;;;;;;;3.30;2.70;;;19.00;76.50;;;;;;5003533;28;96013;-70
2022/04/16 02:27:18;;;;;;;2.70;2.50;;;19.10;76.60;;;;;;4987008;28;95436;-70
2022/04/16 02:29:47;;;;;;;2.88;2.55;;;19.10;76.50;;;;;;4987993;28;95805;-70
2022/04/16 02:32:19;;;;;;;3.00;2.77;;;19.10;76.40;;;;;;4972171;28;95896;-70
2022/04/16 02:34:52;;;;;;;3.55;3.08;;;19.20;76.30;;;;;;4944063;28;97992;-70
2022/04/16 02:37:23;;;;;;;2.70;2.50;;;19.20;76.30;;;;;;4971504;28;95568;-70
2022/04/16 02:39:55;;;;;;;3.80;3.28;;;19.30;76.20;;;;;;4949674;28;95864;-70
2022/04/16 02:42:25;;;;;;;2.87;2.67;;;19.30;76.10;;;;;;4988504;28;96484;-70
2022/04/16 02:47:46;;;;;;;3.35;2.83;;;19.40;76.10;;;;;;4986957;28;95910;-70
2022/04/16 02:50:17;;;;;;;2.30;2.10;;;19.50;76.00;;;;;;4988371;28;95715;-70
2022/04/16 02:52:48;;;;;;;3.15;2.85;;;19.50;76.00;;;;;;4989424;28;96806;-70
2022/04/16 02:55:19;;;;;;;3.20;2.77;;;19.50;75.80;;;;;;4989110;28;96830;-70
2022/04/16 02:57:52;;;;;;;3.17;2.88;;;19.60;75.80;;;;;;4989551;28;96144;-70
2022/04/16 03:00:22;;;;;;;2.95;2.60;;;19.60;75.60;;;;;;4976820;28;97367;-70
2022/04/16 03:02:55;;;;;;;3.20;2.70;;;19.70;75.60;;;;;;4987661;28;97482;-70
2022/04/16 03:05:26;;;;;;;3.17;2.55;;;19.70;75.60;;;;;;4968575;28;95367;-70
2022/04/16 03:07:57;;;;;;;3.08;2.80;;;19.80;75.50;;;;;;4986750;28;95696;-70
2022/04/16 03:10:29;;;;;;;2.78;2.42;;;19.80;75.50;;;;;;4975942;28;96230;-70
2022/04/16 03:13:01;;;;;;;3.15;2.58;;;19.90;75.50;;;;;;4969419;28;96886;-71
2022/04/16 03:18:20;;;;;;;2.75;2.53;;;19.90;75.20;;;;;;4987894;28;95613;-70
2022/04/16 03:20:51;;;;;;;3.35;3.05;;;20.00;75.80;;;;;;4978729;28;95999;-72
2022/04/16 03:23:22;;;;;;;2.72;2.53;;;20.10;75.30;;;;;;4986889;28;96668;-70
2022/04/16 03:25:53;;;;;;;3.08;2.78;;;20.10;75.10;;;;;;4980815;28;95729;-71
2022/04/16 03:28:23;;;;;;;2.58;2.38;;;20.10;75.00;;;;;;4986258;28;95414;-70
2022/04/16 03:30:54;;;;;;;3.70;2.80;;;20.20;75.10;;;;;;4978999;28;95305;-70
2022/04/16 03:33:26;;;;;;;3.20;2.40;;;20.30;75.00;;;;;;4983252;28;95836;-70
2022/04/16 03:35:59;;;;;;;2.72;2.53;;;20.30;74.90;;;;;;4987032;28;95345;-70
2022/04/16 03:38:31;;;;;;;3.05;2.75;;;20.30;74.90;;;;;;5001227;28;96251;-70
2022/04/16 03:41:03;;;;;;;2.75;2.50;;;20.40;74.80;;;;;;4965141;28;95839;-70
2022/04/16 03:43:34;;;;;;;2.95;2.65;;;20.40;74.80;;;;;;4985812;28;96559;-70
2022/04/16 03:46:04;;;;;;;3.25;2.70;;;20.40;74.80;;;;;;4979387;28;95989;-71
2022/04/16 03:48:36;;;;;;;2.42;2.22;;;20.50;74.60;;;;;;4986727;28;95791;-71
2022/04/16 03:51:07;;;;;;;3.15;2.72;;;20.50;74.60;;;;;;4977823;28;95896;-71
2022/04/16 03:53:37;;;;;;;3.00;2.70;;;20.50;74.50;;;;;;4985745;28;96988;-70
2022/04/16 04:01:45;;;;;;;2.65;2.42;;;20.70;74.40;;;;;;4979667;28;95704;-71
2022/04/16 04:04:15;;;;;;;2.70;2.50;;;20.70;74.30;;;;;;4962624;28;95961;-71
2022/04/16 04:06:46;;;;;;;2.72;2.53;;;20.70;74.20;;;;;;5002782;28;95710;-71
2022/04/16 04:09:17;;;;;;;2.50;2.30;;;20.80;74.30;;;;;;4964904;28;96906;-69
2022/04/16 04:11:47;;;;;;;2.60;2.40;;;20.80;74.20;;;;;;4963664;28;95859;-71
2022/04/16 04:14:19;;;;;;;3.80;2.97;;;20.80;74.20;;;;;;5001443;28;96411;-71
2022/04/16 04:16:50;;;;;;;;;;;20.90;74.20;;;;;;4980349;28;96665;-71
2022/04/16 04:19:21;;;;;;;2.60;2.40;;;20.90;74.20;;;;;;4981788;28;96033;-71
2022/04/16 04:21:51;;;;;;;2.77;2.57;;;20.90;74.00;;;;;;4964193;28;95552;-71
2022/04/16 04:24:20;;;;;;;2.97;2.67;;;21.00;74.10;;;;;;4987055;28;95957;-71
2022/04/16 04:26:55;;;;;;;3.10;2.67;;;21.00;74.00;;;;;;4952333;28;95413;-70
2022/04/16 04:29:26;;;;;;;2.40;2.17;;;21.00;73.90;;;;;;4983812;28;95908;-70
2022/04/16 04:31:57;;;;;;;2.63;2.43;;;21.10;73.80;;;;;;4994563;28;96107;-71
2022/04/16 04:34:28;;;;;;;2.97;2.67;;;21.10;73.80;;;;;;4958208;28;95851;-71
2022/04/16 04:36:59;;;;;;;3.50;2.50;;;21.10;73.80;;;;;;4967496;28;98015;-71
2022/04/16 04:39:30;;;;;;;3.08;2.80;;;21.20;73.90;;;;;;4985508;28;95973;-71
2022/04/16 04:42:00;;;;;;;2.65;2.45;;;21.20;73.70;;;;;;4987419;28;95766;-71
2022/04/16 04:44:32;;;;;;;2.13;2.03;;;21.20;73.70;;;;;;4983288;28;98083;-71
2022/04/16 04:47:03;;;;;;;3.45;2.72;;;21.30;73.80;;;;;;4978552;28;96083;-71
2022/04/16 04:49:36;;;;;;;2.50;2.30;;;21.20;73.60;;;;;;4988452;28;95535;-71
2022/04/16 04:52:07;;;;;;;2.47;2.28;;;21.30;73.70;;;;;;4960942;28;95792;-71
2022/04/16 04:54:38;;;;;;;2.60;2.40;;;21.30;73.60;;;;;;4981795;28;96483;-71
2022/04/16 04:57:10;;;;;;;2.20;1.98;;;21.40;73.50;;;;;;4988775;28;95799;-71
2022/04/16 04:59:40;;;;;;;2.60;2.10;;;21.40;73.60;;;;;;4974469;28;97590;-71
2022/04/16 05:02:10;;;;;;;2.90;2.60;;;21.40;73.40;;;;;;4985580;28;95847;-71
2022/04/16 05:04:41;;;;;;;2.83;2.37;;;21.40;73.40;;;;;;4999891;28;95605;-71
2022/04/16 05:07:11;;;;;;;2.78;2.58;;;21.50;73.40;;;;;;4970943;28;95591;-71
2022/04/16 05:09:42;;;;;;;2.42;2.22;;;21.50;73.30;;;;;;4993082;28;95078;-71
2022/04/16 05:12:13;;;;;;;2.38;2.17;;;21.50;73.30;;;;;;5001419;28;95380;-71
2022/04/16 05:14:44;;;;;;;;;;;21.50;73.20;;;;;;4998160;28;95971;-71
2022/04/16 05:17:14;;;;;;;2.55;2.35;;;21.50;73.30;;;;;;4954203;28;99418;-71
2022/04/16 05:19:46;;;;;;;3.95;2.60;;;21.60;73.30;;;;;;4986884;28;95817;-71
2022/04/16 05:22:16;;;;;;;2.60;2.40;;;21.60;73.20;;;;;;4985494;28;95269;-71
2022/04/16 05:24:47;;;;;;;3.00;2.47;;;21.60;73.30;;;;;;4987430;28;97509;-71
2022/04/16 05:27:20;;;;;;;2.92;2.40;;;21.60;73.30;;;;;;4987981;28;100206;-71
2022/04/16 05:30:06;;;;;;;2.25;2.15;;;21.60;73.10;;;;;;5004124;28;95448;-71
2022/04/16 05:32:39;;;;;;;3.28;2.38;;;21.60;73.20;;;;;;4982538;28;98339;-71
2022/04/16 05:35:12;;;;;;;2.95;2.35;;;21.70;73.20;;;;;;4987881;28;95526;-71
2022/04/16 05:37:44;;;;;;;3.47;2.38;;;21.70;73.10;;;;;;4988836;28;95962;-71
2022/04/16 05:40:15;;;;;;;3.17;2.88;;;21.70;73.20;;;;;;4984388;28;97895;-71
2022/04/16 05:42:45;;;;;;;2.50;2.30;;;21.70;73.10;;;;;;5004089;28;96345;-71
2022/04/16 05:45:16;;;;;;;2.55;2.35;;;21.70;73.00;;;;;;4981908;28;96011;-70
2022/04/16 05:47:47;;;;;;;2.72;2.30;;;21.70;73.00;;;;;;4990558;28;96901;-70
2022/04/16 05:50:19;;;;;;;2.08;1.98;;;21.80;73.00;;;;;;4985206;28;95471;-70
2022/04/16 05:52:52;;;;;;;2.10;2.00;;;21.80;73.00;;;;;;4989269;28;95576;-71
2022/04/16 05:55:26;;;;;;;2.03;1.88;;;21.80;72.90;;;;;;4982805;28;95947;-71
2022/04/16 05:57:57;;;;;;;2.55;2.35;;;21.80;73.00;;;;;;4982839;28;95487;-70
2022/04/16 06:00:28;;;;;;;2.03;1.92;;;21.80;72.90;;;;;;4963751;28;96009;-71
2022/04/16 06:02:59;;;;;;;;;;;21.80;72.90;;;;;;4988399;28;95761;-71
2022/04/16 06:05:33;;;;;;;2.35;2.15;;;21.90;72.80;;;;;;4983809;28;96668;-70
2022/04/16 06:08:05;;;;;;;2.67;2.45;;;21.90;73.50;;;;;;4964496;28;95702;-71
2022/04/16 06:10:37;;;;;;;;;;;21.90;72.80;;;;;;4987522;28;95947;-71
2022/04/16 06:13:13;;;;;;;2.33;2.13;;;21.90;72.80;;;;;;4987589;28;95874;-70
2022/04/16 06:15:44;;;;;;;3.42;2.50;;;21.90;72.80;;;;;;4976847;28;95905;-70
2022/04/16 06:18:16;;;;;;;2.47;2.28;;;21.90;72.70;;;;;;4983676;28;95339;-71
2022/04/16 06:20:47;;;;;;;2.28;2.10;;;21.90;72.70;;;;;;4979989;28;95650;-71
2022/04/16 06:23:23;;;;;;;2.40;2.20;;;21.90;72.60;;;;;;4990789;28;95702;-70
2022/04/16 06:25:52;;;;;;;2.08;1.90;;;21.90;72.60;;;;;;4969118;28;96443;-71
2022/04/16 06:28:22;;;;;;;2.60;2.40;;;22.00;72.60;;;;;;4988361;28;95894;-70
2022/04/16 06:30:52;;;;;;;2.13;2.03;;;22.00;72.60;;;;;;4977628;28;95738;-70
2022/04/16 06:33:24;;;;;;;2.25;2.05;;;22.00;72.60;;;;;;5003968;28;98581;-71
2022/04/16 06:35:54;;;;;;;;;;;22.00;72.60;;;;;;4988691;28;96924;-71
2022/04/16 06:38:24;;;;;;;2.28;2.08;;;22.00;72.50;;;;;;4989025;28;95925;-71
2022/04/16 06:40:56;;;;;;;;;;;22.00;72.50;;;;;;4988428;28;95529;-70
2022/04/16 06:43:27;;;;;;;2.88;2.05;;;22.00;72.50;;;;;;5002921;28;95854;-69
2022/04/16 06:46:03;;;;;;;2.47;2.25;;;22.00;72.60;;;;;;4959329;28;98400;-71
2022/04/16 06:48:35;;;;;;;1.80;1.70;;;22.00;72.50;;;;;;4969406;28;95708;-71
2022/04/16 06:51:06;;;;;;;2.15;1.95;;;22.10;72.50;;;;;;4952439;28;95822;-71
2022/04/16 06:53:37;;;;;;;2.53;2.33;;;22.00;72.40;;;;;;4958263;28;95560;-71
2022/04/16 06:56:07;;;;;;;2.75;2.55;;;22.00;72.40;;;;;;4967469;28;95904;-71
2022/04/16 06:58:38;;;;;;;2.55;2.15;;;22.00;73.00;;;;;;4969540;28;95480;-70
2022/04/16 07:01:08;;;;;;;2.13;1.93;;;22.10;72.40;;;;;;4962848;28;95732;-71
2022/04/16 07:03:38;;;;;;;2.00;1.90;;;22.10;72.40;;;;;;4960678;28;95902;-71
2022/04/16 07:06:09;;;;;;;2.13;1.95;;;22.10;72.40;;;;;;4966935;28;96586;-70
2022/04/16 07:08:40;;;;;;;2.63;2.42;;;22.00;72.30;;;;;;4942942;28;97376;-71
2022/04/16 07:11:11;;;;;;;2.55;2.35;;;22.10;72.40;;;;;;4960634;28;96324;-71
2022/04/16 07:13:42;;;;;;;;;;;22.10;72.40;;;;;;4968385;28;95711;-69
2022/04/16 07:16:13;;;;;;;2.50;2.30;;;22.00;72.30;;;;;;4970661;28;95838;-70
2022/04/16 07:18:44;;;;;;;2.97;2.37;;;22.10;72.40;;;;;;4987839;28;95811;-70
2022/04/16 07:21:16;;;;;;;2.22;2.03;;;22.10;72.30;;;;;;4988284;28;95747;-70
2022/04/16 07:23:46;;;;;;;2.35;2.15;;;22.10;72.30;;;;;;4988344;28;95707;-71
2022/04/16 07:26:16;;;;;;;2.10;2.00;;;22.00;72.30;;;;;;4969036;28;96471;-70
2022/04/16 07:28:45;;;;;;;2.45;2.25;;;22.00;72.20;;;;;;4985916;28;96256;-71
2022/04/16 07:31:16;;;;;;;2.53;2.33;;;22.10;72.30;;;;;;4979815;28;98432;-70
2022/04/16 07:33:47;;;;;;;2.45;2.28;;;22.10;72.30;;;;;;5002148;28;96684;-70
2022/04/16 07:36:17;;;;;;;;;;;22.00;72.20;;;;;;4987623;28;96534;-70
2022/04/16 07:38:48;;;;;;;2.17;1.98;;;22.00;72.30;;;;;;4970148;28;96091;-70
2022/04/16 07:41:18;;;;;;;2.28;2.15;;;22.00;72.30;;;;;;5002363;28;95424;-70
2022/04/16 07:43:49;;;;;;;2.47;2.28;;;22.00;72.30;;;;;;4986702;28;95710;-70
2022/04/16 07:46:22;;;;;;;2.17;2.08;;;22.00;72.30;;;;;;4979254;28;97122;-70
2022/04/16 07:48:54;;;;;;;3.15;2.45;;;22.00;72.30;;;;;;4988721;28;96253;-70
2022/04/16 07:51:26;;;;;;;2.47;2.28;;;22.00;72.30;;;;;;4990916;28;95838;-70
2022/04/16 07:53:58;;;;;;;2.05;1.90;;;22.00;72.30;;;;;;4980479;28;96177;-70
2022/04/16 07:56:28;;;;;;;2.75;2.47;;;21.90;72.20;;;;;;4988179;28;95892;-70
2022/04/16 07:59:01;;;;;;;2.28;2.08;;;21.90;72.30;;;;;;4987422;28;95626;-70
2022/04/16 08:01:31;;;;;;;2.53;2.33;;;21.90;72.30;;;;;;4968918;28;98604;-70
2022/04/16 08:04:01;;;;;;;2.40;2.20;;;21.90;72.20;;;;;;4967479;28;95736;-70
2022/04/16 08:06:31;;;;;;;2.40;2.20;;;21.90;72.30;;;;;;4967782;28;97996;-70
2022/04/16 08:09:01;;;;;;;2.58;2.38;;;21.80;72.30;;;;;;4963867;28;98651;-71
2022/04/16 08:11:34;;;;;;;3.25;2.92;;;21.80;72.30;;;;;;4961410;28;95947;-70
2022/04/16 08:14:06;;;;;;;2.38;2.17;;;21.80;72.20;;;;;;4973756;28;95814;-70
2022/04/16 08:16:38;;;;;;;2.72;2.53;;;21.80;72.30;;;;;;4980757;28;95875;-71
2022/04/16 08:19:10;;;;;;;2.55;2.35;;;21.80;72.30;;;;;;4998423;28;95317;-70
2022/04/16 08:21:40;;;;;;;;;;;21.80;72.20;;;;;;4982297;28;96059;-70
2022/04/16 08:26:42;;;;;;;2.50;2.15;;;21.80;72.20;;;;;;5002216;28;95188;-70
2022/04/16 08:29:12;;;;;;;;;;;21.80;72.20;;;;;;4996164;28;95788;-70
2022/04/16 08:31:42;;;;;;;3.00;2.80;;;21.70;72.20;;;;;;4982185;28;95673;-70
2022/04/16 08:34:33;;;;;;;;;;;21.70;72.30;;;;;;4986774;28;95811;-70
2022/04/16 08:37:03;;;;;;;3.03;2.72;;;21.70;72.20;;;;;;4986607;28;95789;-70
2022/04/16 08:39:34;;;;;;;3.30;3.05;;;21.70;72.40;;;;;;4968217;28;95627;-71
2022/04/16 08:42:05;;;;;;;3.78;3.17;;;21.70;72.30;;;;;;4981497;28;95446;-70
2022/04/16 08:44:40;;;;;;;6.10;4.28;;;21.70;72.40;;;;;;4984921;28;95918;-70
2022/04/16 08:47:12;;;;;;;5.60;3.97;;;21.60;72.30;;;;;;4973329;28;95870;-70
2022/04/16 08:49:46;;;;;;;5.40;4.40;;;21.60;72.40;;;;;;4990663;28;95296;-70
2022/04/16 08:52:20;;;;;;;5.82;3.90;;;21.60;72.50;;;;;;4988070;28;95848;-70
2022/04/16 08:54:52;;;;;;;7.20;5.55;;;21.60;72.60;;;;;;4991192;28;95370;-70
2022/04/16 08:57:24;;;;;;;6.13;4.85;;;21.60;72.60;;;;;;4991657;28;96541;-70
2022/04/16 08:59:55;;;;;;;;;;;21.60;72.70;;;;;;4988793;28;97479;-71
2022/04/16 09:02:29;;;;;;;7.38;5.65;;;21.50;72.70;;;;;;5000127;28;95801;-70
2022/04/16 09:05:05;;;;;;;7.43;5.68;;;21.50;72.70;;;;;;4987845;28;95222;-70
2022/04/16 09:07:47;;;;;;;7.72;5.93;;;21.50;72.70;;;;;;4989249;28;95908;-71
2022/04/16 09:10:22;;;;;;;7.50;5.72;;;21.40;72.80;;;;;;4993000;28;96034;-70
2022/04/16 09:12:56;;;;;;;6.68;5.50;;;21.50;72.90;;;;;;4988595;28;95548;-71
2022/04/16 09:15:28;;;;;;;10.02;7.18;;;21.40;72.90;;;;;;4982680;28;95660;-71
2022/04/16 09:18:07;;;;;;;9.05;6.03;;;21.40;72.90;;;;;;4971434;28;102262;-70
2022/04/16 09:20:39;;;;;;;7.40;6.60;;;21.40;73.70;;;;;;4989644;28;95551;-71
2022/04/16 09:23:17;;;;;;;9.05;6.72;;;21.30;73.10;;;;;;4994173;28;95249;-71
2022/04/16 09:25:47;;;;;;;9.52;7.57;;;21.30;73.10;;;;;;4987965;28;95857;-70
2022/04/16 09:28:19;;;;;;;9.60;7.10;;;21.30;73.10;;;;;;4959029;28;96803;-70
2022/04/16 09:30:51;;;;;;;8.70;6.90;;;21.30;73.20;;;;;;4983214;28;97515;-70
2022/04/16 09:33:25;;;;;;;10.63;6.63;;;21.30;73.20;;;;;;4989043;28;95713;-70
2022/04/16 09:35:58;;;;;;;13.80;8.80;;;21.30;73.20;;;;;;4963690;28;95817;-70
2022/04/16 09:38:40;;;;;;;9.43;7.40;;;21.30;73.20;;;;;;4988117;28;96029;-70
2022/04/16 09:41:15;;;;;;;10.20;7.90;;;21.20;73.30;;;;;;4977658;28;95782;-70
2022/04/16 09:43:47;;;;;;;12.77;8.70;;;21.10;73.40;;;;;;4980531;28;95604;-71
2022/04/16 09:46:18;;;;;;;9.48;7.90;;;21.20;73.40;;;;;;4984683;28;96671;-70
2022/04/16 09:48:52;;;;;;;10.85;8.13;;;21.10;73.50;;;;;;4990010;28;95843;-70
2022/04/16 09:51:25;;;;;;;11.40;8.20;;;21.10;73.60;;;;;;4963932;28;97284;-70
2022/04/16 09:53:57;;;;;;;13.38;8.75;;;21.10;73.70;;;;;;5005313;28;95319;-70
2022/04/16 09:56:29;;;;;;;10.40;8.77;;;21.00;73.60;;;;;;4971883;28;96127;-70
2022/04/16 09:59:06;;;;;;;12.85;8.93;;;21.00;73.70;;;;;;4972425;28;96848;-70
2022/04/16 10:01:38;;;;;;;9.80;7.97;;;21.00;73.80;;;;;;4981294;28;97785;-70
2022/04/16 10:04:09;;;;;;;17.17;8.68;;;21.00;73.70;;;;;;5005295;28;95699;-70
2022/04/16 10:06:41;;;;;;;14.80;8.97;;;21.00;73.80;;;;;;4971536;28;95826;-71
2022/04/16 10:09:14;;;;;;;12.45;8.88;;;20.90;73.80;;;;;;4979701;28;96494;-71
2022/04/16 10:14:57;;;;;;;13.00;9.45;;;20.90;74.00;;;;;;4988613;28;95331;-70
2022/04/16 10:17:52;;;;;;;11.85;9.35;;;20.90;74.10;;;;;;4980767;28;95476;-70
2022/04/16 10:20:25;;;;;;;11.63;10.13;;;20.80;74.10;;;;;;4988481;28;95870;-70
2022/04/16 10:22:58;;;;;;;15.52;10.13;;;20.80;74.10;;;;;;4979542;28;95704;-71
2022/04/16 10:25:34;;;;;;;15.38;9.98;;;20.80;74.20;;;;;;4988765;28;95600;-70
2022/04/16 10:28:09;;;;;;;15.80;10.77;;;20.80;74.20;;;;;;4988172;28;95383;-70
2022/04/16 10:30:50;;;;;;;14.80;12.13;;;20.80;74.20;;;;;;4977826;28;96956;-70
2022/04/16 10:33:24;;;;;;;14.15;10.18;;;20.80;74.30;;;;;;4981317;28;95620;-69
2022/04/16 10:36:02;;;;;;;13.15;10.10;;;20.80;74.50;;;;;;4959174;28;95869;-70
2022/04/16 10:38:41;;;;;;;15.13;11.25;;;20.70;74.50;;;;;;4965728;28;95840;-71
2022/04/16 10:41:17;;;;;;;14.27;10.65;;;20.70;74.60;;;;;;4962493;28;95940;-70
2022/04/16 10:44:01;;;;;;;17.92;11.20;;;20.70;74.80;;;;;;4960938;28;96192;-70
2022/04/16 10:47:03;;;;;;;14.98;11.07;;;20.60;74.70;;;;;;4960331;28;95935;-70
2022/04/16 10:49:42;;;;;;;14.85;10.43;;;20.60;74.80;;;;;;4956182;28;96111;-70
2022/04/16 10:52:23;;;;;;;15.40;11.52;;;20.60;74.80;;;;;;4945470;28;98235;-70
2022/04/16 10:55:06;;;;;;;15.90;11.70;;;20.60;74.90;;;;;;4968746;28;95821;-70
2022/04/16 10:57:38;;;;;;;14.02;11.50;;;20.60;74.90;;;;;;4968822;28;95835;-71
2022/04/16 11:00:12;;;;;;;14.97;11.50;;;20.50;74.90;;;;;;4936818;28;95430;-70
2022/04/16 11:03:27;;;;;;;15.93;11.60;;;20.50;74.90;;;;;;4985205;28;102224;-70
2022/04/16 11:06:51;;;;;;;15.48;12.00;;;20.50;74.50;;;;;;5036494;27;95336;-70
2022/04/16 11:09:21;;;;;;;16.67;11.35;;;20.40;75.10;;;;;;5024225;27;96044;-70
2022/04/16 11:11:52;;;;;;;17.02;12.27;;;20.50;75.10;;;;;;5018308;27;96138;-70
2022/04/16 11:14:26;;;;;;;15.63;12.07;;;20.40;75.00;;;;;;5017023;27;95870;-71
2022/04/16 11:16:55;;;;;;;15.55;11.68;;;20.40;75.10;;;;;;4984311;28;99108;-70
2022/04/16 11:19:27;;;;;;;14.60;11.30;;;20.40;75.20;;;;;;5000056;28;95897;-70
2022/04/16 11:21:57;;;;;;;15.32;11.05;;;20.30;75.20;;;;;;5016027;27;95814;-70
2022/04/16 11:24:29;;;;;;;15.32;11.10;;;20.30;75.20;;;;;;5000591;28;96448;-70
2022/04/16 11:36:14;;;;;;;14.50;11.45;;;20.20;74.80;;;;;;5010471;27;95759;-70
2022/04/16 11:38:46;;;;;;;14.30;11.18;;;20.20;75.30;;;;;;5012754;27;95748;-70
2022/04/16 11:41:18;;;;;;;13.55;10.77;;;20.20;75.30;;;;;;5033851;27;96236;-71
2022/04/16 11:43:55;;;;;;;14.35;11.40;;;20.20;75.30;;;;;;5019301;27;96053;-71
2022/04/16 11:46:27;;;;;;;14.90;11.50;;;20.10;75.30;;;;;;4988311;27;95982;-70
2022/04/16 11:49:00;;;;;;;11.50;9.70;;;20.10;75.30;;;;;;4978003;28;95243;-70
2022/04/16 11:51:33;;;;;;;13.88;11.38;;;20.10;75.40;;;;;;4967595;28;96840;-70
2022/04/16 11:54:03;;;;;;;15.32;11.75;;;20.10;75.50;;;;;;4961885;28;96512;-70
2022/04/16 11:56:33;;;;;;;13.27;11.85;;;20.10;75.50;;;;;;4971508;28;95950;-70
2022/04/16 11:59:03;;;;;;;16.02;11.98;;;20.00;75.40;;;;;;4967844;28;95744;-70
2022/04/16 12:01:34;;;;;;;14.77;11.25;;;20.00;75.50;;;;;;4964152;28;96010;-70
2022/04/16 12:04:08;;;;;;;15.80;11.88;;;20.00;75.50;;;;;;4981298;28;95871;-70
2022/04/16 12:06:39;;;;;;;14.77;11.75;;;20.00;75.60;;;;;;4979946;28;96367;-70
2022/04/16 12:09:12;;;;;;;15.23;11.20;;;20.00;75.60;;;;;;4989666;28;95784;-70
2022/04/16 12:11:43;;;;;;;16.33;11.57;;;20.00;75.60;;;;;;4988345;28;95955;-70
2022/04/16 12:14:23;;;;;;;17.90;12.88;;;19.90;75.60;;;;;;4980687;28;98190;-70
2022/04/16 12:17:01;;;;;;;19.60;14.13;;;19.90;75.60;;;;;;4961495;28;95908;-70
2022/04/16 12:19:36;;;;;;;16.08;11.43;;;19.90;75.60;;;;;;4977339;28;95918;-70
2022/04/16 12:22:16;;;;;;;14.32;11.45;;;19.90;75.60;;;;;;4963774;28;95858;-69
2022/04/16 12:24:47;;;;;;;16.48;12.27;;;19.80;75.60;;;;;;4971249;28;96183;-70
2022/04/16 12:27:28;;;;;;;14.13;11.73;;;19.80;75.70;;;;;;4965398;28;95925;-70
2022/04/16 12:29:59;;;;;;;16.10;10.90;;;19.80;75.70;;;;;;4963461;28;95835;-71
2022/04/16 12:32:29;;;;;;;15.80;11.88;;;19.80;75.70;;;;;;4952768;28;95243;-71
2022/04/16 12:35:01;;;;;;;16.25;12.00;;;19.80;75.80;;;;;;4975777;28;96316;-71
2022/04/16 12:37:36;;;;;;;14.68;11.73;;;19.80;75.80;;;;;;4987340;28;95280;-71
2022/04/16 12:40:07;;;;;;;;;;;19.80;75.70;;;;;;4953274;28;96284;-71
2022/04/16 12:42:37;;;;;;;15.95;12.07;;;19.70;75.70;;;;;;4948173;28;96922;-71
2022/04/16 12:45:09;;;;;;;15.10;12.18;;;19.60;75.70;;;;;;4939263;28;98549;-71
2022/04/16 12:47:39;;;;;;;;;;;19.70;75.80;;;;;;4941083;28;102515;-72
2022/04/16 12:50:10;;;;;;;15.30;12.32;;;19.70;75.80;;;;;;4952723;28;95508;-70
2022/04/16 12:52:41;;;;;;;16.92;12.90;;;19.70;75.80;;;;;;4954104;28;95546;-71
2022/04/16 12:55:11;;;;;;;;;;;19.60;75.80;;;;;;4947670;28;95289;-73
2022/04/16 12:57:44;;;;;;;17.20;12.98;;;19.60;75.80;;;;;;4951514;28;95931;-70
2022/04/16 13:00:16;;;;;;;16.33;12.50;;;19.50;75.80;;;;;;4933521;28;95519;-72
2022/04/16 13:02:46;;;;;;;18.15;13.55;;;19.60;75.90;;;;;;4959089;28;95233;-67
2022/04/16 13:05:19;;;;;;;14.80;12.33;;;19.50;75.90;;;;;;4941718;28;95915;-67
2022/04/16 13:07:50;;;;;;;15.18;12.82;;;19.50;76.00;;;;;;4945396;28;96023;-66
2022/04/16 13:10:20;;;;;;;17.33;12.35;;;19.50;76.00;;;;;;4938492;28;95717;-65
2022/04/16 13:12:51;;;;;;;15.80;12.30;;;19.50;76.00;;;;;;4942708;28;95995;-65
2022/04/16 13:15:21;;;;;;;16.13;12.68;;;19.40;76.10;;;;;;4923344;28;95921;-62
2022/04/16 13:17:51;;;;;;;14.98;12.02;;;19.40;76.00;;;;;;4937044;28;95802;-64
2022/04/16 13:20:21;;;;;;;13.80;12.38;;;19.40;76.10;;;;;;4935619;28;95763;-60
2022/04/16 13:22:53;;;;;;;14.70;11.73;;;19.40;76.10;;;;;;4931741;28;95845;-61
2022/04/16 13:25:23;;;;;;;18.65;11.98;;;19.40;76.10;;;;;;4930406;28;95855;-59
2022/04/16 13:27:53;;;;;;;14.13;11.48;;;19.40;76.10;;;;;;4937733;28;95188;-56
2022/04/16 13:30:23;;;;;;;15.25;12.35;;;19.30;76.10;;;;;;4935470;28;95764;-59
2022/04/16 13:32:53;;;;;;;16.40;12.82;;;19.30;76.10;;;;;;4947958;28;95799;-59
2022/04/16 13:35:24;;;;;;;15.23;12.65;;;19.30;76.10;;;;;;4966053;28;98870;-59
2022/04/16 13:37:56;;;;;;;17.08;12.80;;;19.30;76.20;;;;;;4960730;28;95927;-58
2022/04/16 13:43:16;;;;;;;14.95;11.63;;;19.30;76.10;;;;;;4963827;28;95816;-58